Time;durP1;ratioP1;P1;durP2;ratioP2;P2;SDS_P1;SDS_P2;PMS_P1;PMS_P2;Temp;Humidity;BMP_temperature;BMP_pressure;BME280_temperature;BME280_humidity;BME280_pressure;Samples;Min_cycle;Max_cycle;Signal;HPM_P1;HPM_P2
2023/03/27 00:02:22;;;;;;;6.22;1.90;;;4.60;99.90;;;;;;5108657;28;20042;-58
2023/03/27 00:04:53;;;;;;;7.45;1.20;;;4.50;99.90;;;;;;5099658;28;20048;-59
2023/03/27 00:07:21;;;;;;;4.32;1.40;;;4.30;99.90;;;;;;5109069;28;20047;-58
2023/03/27 00:09:49;;;;;;;6.43;1.17;;;4.20;99.90;;;;;;5107356;28;20066;-58
2023/03/27 00:12:16;;;;;;;5.05;0.90;;;4.00;99.90;;;;;;5107768;28;20040;-59
2023/03/27 00:14:45;;;;;;;9.65;1.50;;;4.00;99.90;;;;;;5096786;28;20055;-60
2023/03/27 00:17:12;;;;;;;8.32;1.50;;;3.90;99.90;;;;;;5090718;28;20050;-59
2023/03/27 00:19:40;;;;;;;6.70;1.00;;;3.80;99.90;;;;;;5106692;28;20063;-60
2023/03/27 00:22:08;;;;;;;5.43;1.05;;;3.60;99.90;;;;;;5108769;28;20043;-58
2023/03/27 00:24:36;;;;;;;1.67;1.00;;;3.50;99.90;;;;;;5099946;28;20040;-59
2023/03/27 00:27:03;;;;;;;3.85;1.00;;;3.50;99.90;;;;;;5105101;28;20047;-60
2023/03/27 00:29:32;;;;;;;3.35;1.23;;;3.40;99.90;;;;;;5107936;28;20043;-60
2023/03/27 00:31:59;;;;;;;3.40;1.20;;;3.40;99.90;;;;;;5090497;28;20035;-62
2023/03/27 00:34:27;;;;;;;11.95;1.50;;;3.20;99.90;;;;;;5104300;28;20048;-61
2023/03/27 00:36:55;;;;;;;3.50;1.45;;;3.20;99.90;;;;;;5086279;28;20045;-62
2023/03/27 00:39:23;;;;;;;3.72;1.00;;;3.20;99.90;;;;;;5106091;28;20047;-62
2023/03/27 00:41:54;;;;;;;7.03;1.30;;;3.10;99.90;;;;;;5103351;28;20040;-62
2023/03/27 00:44:33;;;;;;;6.80;1.13;;;3.00;99.90;;;;;;5102933;28;20059;-61
2023/03/27 00:47:03;;;;;;;4.28;1.20;;;2.90;99.90;;;;;;5090133;28;20036;-59
2023/03/27 00:49:35;;;;;;;4.40;0.95;;;2.90;99.90;;;;;;5107708;28;20063;-59
2023/03/27 00:52:05;;;;;;;2.75;0.98;;;2.80;99.90;;;;;;5108651;28;20047;-58
2023/03/27 00:54:38;;;;;;;5.40;0.93;;;2.80;99.90;;;;;;5098328;28;20054;-60
2023/03/27 00:57:13;;;;;;;10.77;1.65;;;2.70;99.90;;;;;;5107097;28;20040;-60
2023/03/27 00:59:42;;;;;;;2.60;1.00;;;2.50;99.90;;;;;;5089654;28;20487;-59
2023/03/27 01:02:11;;;;;;;9.02;1.20;;;2.50;99.90;;;;;;5089944;28;20051;-59
2023/03/27 01:04:41;;;;;;;2.75;0.88;;;2.40;99.90;;;;;;5106628;28;20044;-59
2023/03/27 01:07:10;;;;;;;3.70;1.15;;;2.30;99.90;;;;;;5110353;28;20055;-59
2023/03/27 01:09:40;;;;;;;6.20;1.15;;;2.20;99.90;;;;;;5110867;28;20040;-60
2023/03/27 01:12:38;;;;;;;4.38;1.05;;;2.20;99.90;;;;;;5089769;28;20044;-58
2023/03/27 01:15:27;;;;;;;4.00;0.90;;;3.00;99.90;;;;;;5067327;28;20060;-58
2023/03/27 01:18:10;;;;;;;3.55;1.10;;;2.10;99.90;;;;;;5082606;28;20043;-58
2023/03/27 01:21:04;;;;;;;2.17;0.95;;;2.00;99.90;;;;;;5103758;28;20043;-60
2023/03/27 01:23:54;;;;;;;4.45;0.90;;;2.00;99.90;;;;;;5092214;28;20051;-58
2023/03/27 01:26:57;;;;;;;3.97;1.23;;;2.00;99.90;;;;;;5091395;28;20048;-58
2023/03/27 01:30:20;;;;;;;12.32;1.30;;;1.90;99.90;;;;;;5095191;28;20043;-58
2023/03/27 01:33:05;;;;;;;5.43;1.40;;;1.80;99.90;;;;;;5007350;28;20041;-60
2023/03/27 01:36:00;;;;;;;3.22;1.13;;;1.80;99.90;;;;;;5080939;28;20055;-58
2023/03/27 01:38:59;;;;;;;2.75;1.25;;;1.70;99.90;;;;;;5092018;28;20036;-59
2023/03/27 01:41:48;;;;;;;5.07;1.52;;;1.60;99.90;;;;;;5093207;28;20044;-59
2023/03/27 01:44:28;;;;;;;5.40;1.70;;;1.60;99.90;;;;;;5109637;28;20059;-58
2023/03/27 01:47:40;;;;;;;2.92;1.20;;;1.60;99.90;;;;;;5104539;28;20484;-59
2023/03/27 01:50:24;;;;;;;5.80;1.42;;;1.60;99.90;;;;;;5096086;28;20520;-59
2023/03/27 01:53:02;;;;;;;5.07;1.08;;;1.60;99.90;;;;;;5096878;28;20503;-58
2023/03/27 01:55:35;;;;;;;3.80;2.05;;;1.50;99.90;;;;;;5093077;28;20044;-59
2023/03/27 01:58:12;;;;;;;12.70;3.15;;;3.30;99.90;;;;;;5092627;28;20522;-58
2023/03/27 02:00:49;;;;;;;9.45;3.35;;;1.40;99.90;;;;;;5088004;28;20040;-58
2023/03/27 02:03:25;;;;;;;15.38;3.95;;;1.30;99.90;;;;;;5095860;28;20035;-59
2023/03/27 02:06:01;;;;;;;8.30;3.03;;;1.30;99.90;;;;;;5096679;28;20055;-59
2023/03/27 02:08:33;;;;;;;12.35;2.80;;;1.30;99.90;;;;;;5086120;28;20051;-58
2023/03/27 02:11:11;;;;;;;5.93;2.72;;;1.20;99.90;;;;;;5076197;28;20048;-58
2023/03/27 02:13:53;;;;;;;7.55;2.30;;;1.20;99.90;;;;;;5095773;28;20036;-58
2023/03/27 02:16:32;;;;;;;13.48;2.58;;;1.20;99.90;;;;;;5091692;28;20506;-61
2023/03/27 02:19:03;;;;;;;8.80;2.35;;;1.10;99.90;;;;;;5109293;28;20035;-62
2023/03/27 02:21:32;;;;;;;6.22;2.05;;;1.10;99.90;;;;;;5092679;28;20048;-58
2023/03/27 02:24:04;;;;;;;9.95;2.25;;;1.10;99.90;;;;;;5101603;28;20043;-58
2023/03/27 02:26:33;;;;;;;10.23;2.00;;;1.00;99.90;;;;;;5112022;28;20550;-58
2023/03/27 02:29:37;;;;;;;6.15;2.53;;;1.00;99.90;;;;;;5095943;28;20039;-61
2023/03/27 02:32:23;;;;;;;7.82;2.22;;;1.00;99.90;;;;;;5093152;27;20392;-61
2023/03/27 02:35:20;;;;;;;9.18;3.05;;;1.00;99.90;;;;;;5106505;28;20495;-59
2023/03/27 02:38:05;;;;;;;9.52;3.00;;;0.90;99.90;;;;;;5096139;28;20044;-60
2023/03/27 02:40:59;;;;;;;7.07;2.20;;;1.00;99.90;;;;;;5076262;28;20395;-61
2023/03/27 02:44:03;;;;;;;8.73;3.00;;;1.00;99.90;;;;;;5073317;28;20415;-60
2023/03/27 02:46:56;;;;;;;10.15;2.60;;;1.00;99.90;;;;;;5096715;28;20024;-58
2023/03/27 02:49:33;;;;;;;10.95;3.17;;;1.00;99.90;;;;;;5111557;28;20047;-60
2023/03/27 02:52:30;;;;;;;6.95;1.75;;;1.00;99.90;;;;;;5111347;27;20502;-59
2023/03/27 02:55:05;;;;;;;2.92;1.42;;;1.00;99.90;;;;;;5075346;28;20058;-62
2023/03/27 02:57:40;;;;;;;6.60;1.98;;;0.90;99.90;;;;;;5058565;28;20044;-61
2023/03/27 03:00:25;;;;;;;8.18;1.88;;;0.90;99.90;;;;;;5109971;28;20043;-59
2023/03/27 03:03:07;;;;;;;7.43;2.17;;;0.80;99.90;;;;;;5095267;28;20047;-60
2023/03/27 03:05:39;;;;;;;6.20;2.00;;;0.80;99.90;;;;;;5108937;28;20536;-59
2023/03/27 03:08:09;;;;;;;8.15;2.33;;;0.70;99.90;;;;;;5095403;28;20433;-60
2023/03/27 03:10:44;;;;;;;10.85;2.45;;;0.70;99.90;;;;;;5095221;28;20043;-61
2023/03/27 03:13:16;;;;;;;3.10;1.38;;;0.70;99.90;;;;;;5092545;28;20036;-60
2023/03/27 03:15:45;;;;;;;7.53;1.92;;;0.70;99.90;;;;;;5098827;28;20497;-62
2023/03/27 03:18:17;;;;;;;4.80;1.67;;;0.70;99.90;;;;;;5078246;28;20055;-60
2023/03/27 03:20:45;;;;;;;8.50;1.85;;;0.60;99.90;;;;;;5099510;28;20059;-63
2023/03/27 03:23:14;;;;;;;5.28;1.90;;;0.60;99.90;;;;;;5105233;28;20498;-60
2023/03/27 03:25:43;;;;;;;11.65;2.20;;;0.60;99.90;;;;;;5088544;28;20044;-59
2023/03/27 03:28:11;;;;;;;5.90;2.05;;;0.60;99.90;;;;;;5083914;28;20055;-59
2023/03/27 03:30:44;;;;;;;9.88;2.80;;;0.70;99.90;;;;;;5093149;28;20438;-60
2023/03/27 03:33:13;;;;;;;13.50;2.08;;;0.80;99.90;;;;;;5092831;28;20048;-58
2023/03/27 03:35:41;;;;;;;5.47;1.90;;;0.80;99.90;;;;;;5092106;28;20047;-59
2023/03/27 03:38:25;;;;;;;4.40;2.03;;;0.90;99.90;;;;;;5088662;28;20498;-59
2023/03/27 03:40:55;;;;;;;6.45;2.17;;;0.90;99.90;;;;;;5110386;28;20372;-59
2023/03/27 03:43:25;;;;;;;5.90;1.65;;;1.00;99.90;;;;;;5111751;28;20035;-58
2023/03/27 03:45:55;;;;;;;5.50;2.55;;;1.00;99.90;;;;;;5109452;28;20410;-58
2023/03/27 03:48:25;;;;;;;8.02;1.70;;;1.10;99.90;;;;;;5107032;28;20051;-59
2023/03/27 03:50:53;;;;;;;5.93;1.88;;;1.00;99.90;;;;;;5108397;28;20047;-59
2023/03/27 03:53:21;;;;;;;6.30;1.70;;;1.10;99.90;;;;;;5095475;27;20036;-59
2023/03/27 03:55:52;;;;;;;4.07;1.27;;;1.10;99.90;;;;;;5103055;28;20048;-58
2023/03/27 03:58:22;;;;;;;8.18;2.88;;;1.10;99.90;;;;;;5074234;28;20043;-58
2023/03/27 04:01:04;;;;;;;3.40;1.70;;;1.10;99.90;;;;;;5078217;28;20051;-60
2023/03/27 04:03:40;;;;;;;7.28;2.33;;;1.10;99.90;;;;;;5098971;28;20044;-57
2023/03/27 04:06:09;;;;;;;4.27;1.87;;;1.10;99.90;;;;;;5107546;28;20058;-59
2023/03/27 04:08:38;;;;;;;5.03;1.52;;;1.20;99.90;;;;;;5094288;28;20287;-57
2023/03/27 04:11:25;;;;;;;4.85;1.67;;;1.20;99.90;;;;;;5093912;28;20055;-59
2023/03/27 04:14:13;;;;;;;5.20;2.38;;;1.20;99.90;;;;;;5108284;28;20051;-59
2023/03/27 04:16:43;;;;;;;9.35;1.88;;;1.30;99.90;;;;;;5095826;28;20407;-59
2023/03/27 04:19:24;;;;;;;4.68;1.92;;;1.30;99.90;;;;;;5093896;28;20475;-60
2023/03/27 04:22:02;;;;;;;4.82;2.15;;;1.30;99.90;;;;;;5093876;28;20032;-59
2023/03/27 04:24:33;;;;;;;3.33;1.88;;;1.40;99.90;;;;;;5093942;28;20055;-58
2023/03/27 04:27:01;;;;;;;4.70;1.60;;;1.40;99.90;;;;;;5059851;28;20051;-58
2023/03/27 04:29:53;;;;;;;8.68;2.00;;;1.40;99.90;;;;;;5084522;28;20047;-59
2023/03/27 04:32:49;;;;;;;6.18;1.70;;;1.40;99.90;;;;;;5082408;28;20052;-57
2023/03/27 04:35:38;;;;;;;9.15;1.67;;;1.50;99.90;;;;;;5109846;28;20040;-59
2023/03/27 04:38:13;;;;;;;8.18;1.70;;;1.50;99.90;;;;;;5093462;28;20047;-60
2023/03/27 04:40:51;;;;;;;6.95;2.20;;;1.50;99.90;;;;;;5109696;28;20031;-59
2023/03/27 04:43:24;;;;;;;7.85;2.50;;;1.50;99.90;;;;;;5076902;28;20051;-57
2023/03/27 04:45:53;;;;;;;12.98;2.10;;;1.50;99.90;;;;;;5093045;28;20098;-58
2023/03/27 04:48:21;;;;;;;7.68;2.17;;;1.50;99.90;;;;;;5087611;28;20032;-58
2023/03/27 04:50:53;;;;;;;3.33;1.75;;;1.50;99.90;;;;;;5086987;28;20500;-59
2023/03/27 04:53:35;;;;;;;8.90;2.67;;;1.50;99.90;;;;;;5107091;28;20050;-59
2023/03/27 04:56:12;;;;;;;7.70;2.38;;;1.50;99.90;;;;;;5090007;28;20036;-58
2023/03/27 04:58:45;;;;;;;4.22;2.25;;;1.60;99.90;;;;;;5089776;28;20164;-59
2023/03/27 05:01:24;;;;;;;4.65;2.25;;;1.60;99.90;;;;;;5108409;28;20039;-60
2023/03/27 05:04:15;;;;;;;4.38;1.80;;;1.60;99.90;;;;;;5078991;28;20043;-61
2023/03/27 05:07:20;;;;;;;5.13;1.88;;;1.60;99.90;;;;;;5078108;28;20044;-62
2023/03/27 05:09:50;;;;;;;7.93;2.47;;;;;;;;;;5069903;28;20052;-60
2023/03/27 05:12:21;;;;;;;5.70;2.78;;;1.60;99.90;;;;;;5098641;28;20051;-61
2023/03/27 05:14:53;;;;;;;5.18;2.53;;;1.60;99.90;;;;;;5069646;28;20368;-62
2023/03/27 05:17:32;;;;;;;6.68;2.17;;;1.60;99.90;;;;;;5087775;28;20040;-61
2023/03/27 05:20:00;;;;;;;7.80;3.00;;;1.60;99.90;;;;;;5089947;28;20395;-62
2023/03/27 05:22:31;;;;;;;8.88;2.50;;;1.70;99.90;;;;;;5082972;28;20051;-60
2023/03/27 05:25:09;;;;;;;8.60;3.20;;;1.70;99.90;;;;;;5068964;28;20052;-61
2023/03/27 05:27:38;;;;;;;6.65;2.83;;;1.60;99.90;;;;;;5071206;28;20035;-62
2023/03/27 05:30:07;;;;;;;10.48;2.85;;;1.70;99.90;;;;;;5086166;28;20399;-59
2023/03/27 05:32:35;;;;;;;12.75;3.65;;;1.70;99.90;;;;;;5085293;28;20058;-60
2023/03/27 05:35:18;;;;;;;4.57;2.25;;;1.70;99.90;;;;;;5067516;28;20087;-61
2023/03/27 05:37:51;;;;;;;7.00;2.72;;;1.70;99.90;;;;;;5088069;28;20050;-61
2023/03/27 05:40:27;;;;;;;9.18;2.75;;;1.70;99.90;;;;;;5101180;28;20491;-63
2023/03/27 05:42:55;;;;;;;7.40;2.40;;;1.80;99.90;;;;;;5065915;28;20526;-62
2023/03/27 05:45:28;;;;;;;11.50;3.05;;;1.80;99.90;;;;;;5067471;28;20040;-62
2023/03/27 05:47:57;;;;;;;14.00;3.58;;;1.80;99.90;;;;;;5105220;28;20044;-62
2023/03/27 05:50:33;;;;;;;14.32;4.43;;;1.90;99.90;;;;;;5093193;28;20055;-62
2023/03/27 05:53:08;;;;;;;15.70;3.70;;;2.00;99.90;;;;;;5089738;28;20040;-62
2023/03/27 05:55:48;;;;;;;10.10;3.40;;;2.00;99.90;;;;;;5088084;28;20036;-61
2023/03/27 05:58:36;;;;;;;10.60;3.72;;;2.00;99.90;;;;;;5075691;28;20051;-60
2023/03/27 06:01:04;;;;;;;10.35;2.92;;;2.10;99.90;;;;;;5074307;28;20487;-59
2023/03/27 06:03:36;;;;;;;8.23;3.33;;;2.10;99.90;;;;;;5069047;28;20047;-59
2023/03/27 06:06:12;;;;;;;9.93;2.92;;;2.10;99.90;;;;;;5087457;28;20070;-58
2023/03/27 06:08:43;;;;;;;10.25;3.63;;;2.10;99.90;;;;;;5071012;28;20032;-58
2023/03/27 06:11:14;;;;;;;13.07;3.20;;;2.10;99.90;;;;;;5092804;28;20048;-59
2023/03/27 06:13:45;;;;;;;13.32;3.83;;;2.20;99.90;;;;;;5088344;28;20204;-59
2023/03/27 06:16:24;;;;;;;9.00;3.65;;;2.10;99.90;;;;;;5086630;28;20036;-59
2023/03/27 06:19:31;;;;;;;12.00;3.65;;;2.10;99.90;;;;;;5090210;28;20135;-60
2023/03/27 06:22:02;;;;;;;9.85;3.15;;;2.10;99.90;;;;;;5074141;28;20055;-61
2023/03/27 06:24:30;;;;;;;11.57;3.70;;;2.20;99.90;;;;;;5092765;28;20586;-59
2023/03/27 06:27:00;;;;;;;8.95;2.95;;;2.20;99.90;;;;;;5092639;28;20366;-59
2023/03/27 06:29:30;;;;;;;9.65;3.47;;;2.30;99.90;;;;;;5096215;28;20031;-58
2023/03/27 06:32:01;;;;;;;15.38;4.28;;;2.40;99.90;;;;;;5108447;28;20047;-60
2023/03/27 06:34:33;;;;;;;11.18;3.97;;;2.40;99.90;;;;;;5088376;28;20051;-61
2023/03/27 06:37:35;;;;;;;8.45;3.78;;;2.40;99.90;;;;;;5084069;28;20234;-61
2023/03/27 06:40:09;;;;;;;9.07;3.70;;;2.40;99.90;;;;;;5072119;28;20044;-60
2023/03/27 06:42:37;;;;;;;11.95;4.60;;;2.40;99.90;;;;;;5092425;28;20046;-59
2023/03/27 06:45:27;;;;;;;13.45;4.18;;;2.50;99.90;;;;;;5088838;28;20040;-60
2023/03/27 06:48:13;;;;;;;14.35;4.50;;;2.50;99.90;;;;;;5096220;28;20037;-60
2023/03/27 06:50:52;;;;;;;14.27;4.40;;;2.60;99.90;;;;;;5086590;28;20044;-59
2023/03/27 06:53:23;;;;;;;17.63;5.00;;;2.70;99.90;;;;;;5090793;28;20036;-61
2023/03/27 06:55:56;;;;;;;12.32;5.18;;;2.80;99.90;;;;;;5087242;28;20047;-60
2023/03/27 06:58:26;;;;;;;17.27;5.15;;;2.80;99.90;;;;;;5075538;28;20047;-61
2023/03/27 07:00:54;;;;;;;17.48;5.35;;;2.80;99.90;;;;;;5085325;28;20044;-59
2023/03/27 07:03:22;;;;;;;14.55;4.10;;;2.90;99.90;;;;;;5098257;28;20051;-59
2023/03/27 07:06:09;;;;;;;14.23;4.35;;;2.90;99.90;;;;;;5102543;28;20035;-59
2023/03/27 07:08:50;;;;;;;9.55;4.28;;;2.90;99.90;;;;;;5091282;28;20051;-59
2023/03/27 07:11:18;;;;;;;12.27;3.72;;;3.00;99.90;;;;;;5091019;28;20036;-60
2023/03/27 07:13:54;;;;;;;12.43;4.20;;;3.00;99.90;;;;;;5104143;28;20399;-59
2023/03/27 07:16:26;;;;;;;13.55;3.92;;;3.00;99.90;;;;;;5080336;28;20510;-58
2023/03/27 07:18:54;;;;;;;11.15;3.70;;;3.00;99.90;;;;;;5081885;28;20311;-59
2023/03/27 07:21:23;;;;;;;8.75;3.17;;;3.10;99.90;;;;;;5056872;28;20051;-60
2023/03/27 07:23:53;;;;;;;13.23;4.43;;;3.20;99.90;;;;;;5084715;28;20514;-59
2023/03/27 07:26:31;;;;;;;12.63;4.15;;;3.20;99.90;;;;;;5070997;28;20048;-60
2023/03/27 07:29:01;;;;;;;9.15;3.42;;;3.20;99.90;;;;;;5081367;28;20048;-59
2023/03/27 07:31:29;;;;;;;9.52;3.50;;;3.20;99.90;;;;;;5076383;28;20035;-60
2023/03/27 07:34:18;;;;;;;11.02;3.60;;;3.30;99.90;;;;;;5105914;28;20059;-59
2023/03/27 07:37:21;;;;;;;7.20;2.33;;;3.40;99.90;;;;;;5072279;28;20059;-62
2023/03/27 07:40:21;;;;;;;15.15;3.10;;;3.30;99.90;;;;;;5078473;28;20051;-59
2023/03/27 07:43:29;;;;;;;16.52;3.63;;;3.40;99.90;;;;;;5070656;28;20059;-61
2023/03/27 07:46:00;;;;;;;15.00;4.88;;;4.00;99.90;;;;;;5075250;28;20222;-60
2023/03/27 07:48:29;;;;;;;10.10;3.42;;;3.50;99.90;;;;;;5092876;28;20040;-63
2023/03/27 07:50:58;;;;;;;10.85;2.42;;;3.50;99.90;;;;;;5095699;28;20052;-60
2023/03/27 07:53:40;;;;;;;9.43;3.55;;;3.50;99.90;;;;;;5085371;28;20422;-59
2023/03/27 07:56:30;;;;;;;9.10;3.42;;;3.50;99.90;;;;;;5103071;28;20545;-60
2023/03/27 07:59:19;;;;;;;6.13;2.85;;;3.60;99.90;;;;;;5101530;28;20548;-59
2023/03/27 08:01:50;;;;;;;12.90;3.20;;;3.70;99.90;;;;;;5068676;28;20062;-60
2023/03/27 08:04:21;;;;;;;5.97;2.20;;;3.80;99.90;;;;;;5098495;28;20035;-60
2023/03/27 08:07:10;;;;;;;16.65;3.40;;;3.80;99.90;;;;;;5104431;28;20059;-62
2023/03/27 08:09:41;;;;;;;10.95;2.40;;;3.90;99.90;;;;;;5088150;28;20418;-59
2023/03/27 08:12:09;;;;;;;12.02;3.55;;;3.90;99.90;;;;;;5084177;28;20043;-60
2023/03/27 08:14:41;;;;;;;8.75;3.13;;;4.00;99.90;;;;;;5089228;28;20039;-59
2023/03/27 08:17:16;;;;;;;7.45;2.78;;;4.10;99.90;;;;;;5071466;28;20407;-60
2023/03/27 08:19:48;;;;;;;9.23;3.33;;;4.10;99.90;;;;;;5088752;28;20050;-62
2023/03/27 08:22:20;;;;;;;7.43;3.05;;;4.10;99.90;;;;;;5090461;28;20346;-62
2023/03/27 08:25:09;;;;;;;9.60;2.80;;;4.20;99.90;;;;;;5088550;28;20039;-61
2023/03/27 08:27:38;;;;;;;8.55;2.50;;;4.30;99.90;;;;;;5101757;28;20043;-63
2023/03/27 08:30:06;;;;;;;2.67;1.10;;;4.40;99.90;;;;;;5088657;28;20047;-62
2023/03/27 08:32:38;;;;;;;5.82;1.60;;;4.40;99.90;;;;;;5106654;28;20399;-61
2023/03/27 08:35:09;;;;;;;5.28;1.85;;;4.50;99.90;;;;;;5079832;28;20059;-60
2023/03/27 08:37:37;;;;;;;7.78;2.33;;;4.60;99.90;;;;;;5071792;28;20044;-60
2023/03/27 08:40:29;;;;;;;7.63;2.22;;;4.70;99.90;;;;;;5062442;28;20075;-59
2023/03/27 08:43:25;;;;;;;8.48;2.63;;;4.70;99.90;;;;;;5065954;28;20055;-60
2023/03/27 08:46:27;;;;;;;7.72;2.00;;;4.70;99.90;;;;;;5086587;28;20048;-61
2023/03/27 08:49:21;;;;;;;3.78;1.13;;;4.80;99.90;;;;;;5101066;28;20412;-60
2023/03/27 08:52:14;;;;;;;7.72;1.23;;;4.90;99.90;;;;;;5084396;28;20032;-61
2023/03/27 08:54:52;;;;;;;3.53;1.77;;;5.00;99.90;;;;;;5103377;28;20040;-61
2023/03/27 08:57:30;;;;;;;10.25;1.67;;;5.00;99.90;;;;;;5085804;28;20059;-61
2023/03/27 09:00:13;;;;;;;2.63;1.60;;;5.40;99.90;;;;;;5074780;28;20060;-61
2023/03/27 09:02:53;;;;;;;7.40;1.50;;;5.10;99.90;;;;;;5074928;28;20044;-61
2023/03/27 09:05:32;;;;;;;7.93;2.10;;;6.80;99.90;;;;;;5086139;28;20028;-60
2023/03/27 09:08:20;;;;;;;6.13;1.75;;;5.30;99.90;;;;;;5097175;28;20044;-60
2023/03/27 09:10:53;;;;;;;4.90;1.80;;;5.40;99.90;;;;;;5097143;28;20422;-61
2023/03/27 09:13:47;;;;;;;6.75;1.45;;;5.40;99.90;;;;;;5081471;28;20051;-60
2023/03/27 09:16:21;;;;;;;7.30;1.65;;;5.50;99.90;;;;;;5059964;28;20044;-59
2023/03/27 09:19:10;;;;;;;13.00;1.88;;;5.60;99.90;;;;;;5082242;28;20051;-64
2023/03/27 09:21:43;;;;;;;6.63;1.40;;;5.80;99.90;;;;;;5069365;28;20045;-61
2023/03/27 09:24:28;;;;;;;4.90;1.58;;;5.80;99.90;;;;;;5069108;28;20496;-59
2023/03/27 09:27:33;;;;;;;4.72;1.63;;;5.90;99.90;;;;;;5083554;28;20059;-61
2023/03/27 09:30:25;;;;;;;4.10;1.42;;;5.90;99.90;;;;;;5072716;28;20051;-60
2023/03/27 09:33:04;;;;;;;8.80;1.52;;;6.00;99.90;;;;;;5083161;28;20388;-61
2023/03/27 09:35:37;;;;;;;5.75;1.27;;;6.00;99.90;;;;;;5068482;28;20062;-61
2023/03/27 09:38:32;;;;;;;6.32;1.10;;;6.10;99.90;;;;;;5094250;28;20546;-59
2023/03/27 09:41:14;;;;;;;7.75;1.90;;;6.20;99.90;;;;;;5101958;28;20047;-59
2023/03/27 09:43:54;;;;;;;5.88;1.40;;;6.30;99.90;;;;;;5085995;28;20040;-59
2023/03/27 09:46:25;;;;;;;5.18;1.75;;;6.30;99.90;;;;;;5088885;28;20487;-59
2023/03/27 09:49:16;;;;;;;3.20;1.73;;;6.30;99.90;;;;;;5095655;28;20032;-61
2023/03/27 09:51:55;;;;;;;7.25;2.67;;;6.40;99.90;;;;;;5081277;28;20074;-59
2023/03/27 09:54:55;;;;;;;5.55;1.75;;;6.50;99.90;;;;;;5077195;28;20059;-59
2023/03/27 09:57:36;;;;;;;4.38;1.77;;;6.50;99.90;;;;;;5073399;28;20044;-58
2023/03/27 10:00:26;;;;;;;8.35;2.22;;;6.60;99.90;;;;;;5080970;28;20040;-60
2023/03/27 10:03:06;;;;;;;7.03;2.25;;;6.70;99.90;;;;;;5098283;28;20548;-60
2023/03/27 10:05:38;;;;;;;9.68;2.40;;;6.80;99.90;;;;;;5093617;28;20036;-59
2023/03/27 10:08:43;;;;;;;7.28;2.08;;;6.90;99.90;;;;;;5078179;28;20044;-60
2023/03/27 10:11:20;;;;;;;7.00;2.72;;;7.00;99.90;;;;;;5058006;28;20511;-58
2023/03/27 10:13:53;;;;;;;10.27;2.45;;;7.10;99.90;;;;;;5105133;28;20044;-60
2023/03/27 10:16:26;;;;;;;9.20;3.40;;;7.20;99.90;;;;;;5085614;28;20052;-58
2023/03/27 10:19:00;;;;;;;8.35;2.50;;;7.30;99.90;;;;;;5077654;28;20048;-59
2023/03/27 10:21:37;;;;;;;7.15;2.65;;;7.50;99.90;;;;;;5105664;28;20051;-60
2023/03/27 10:24:26;;;;;;;8.70;2.60;;;7.70;99.90;;;;;;5102180;28;20053;-59
2023/03/27 10:27:24;;;;;;;6.78;2.80;;;7.70;99.90;;;;;;5069159;28;20048;-59
2023/03/27 10:30:32;;;;;;;9.00;2.58;;;8.00;99.90;;;;;;5061925;28;20053;-59
2023/03/27 10:33:35;;;;;;;9.95;3.15;;;8.10;99.90;;;;;;5049344;28;20535;-59
2023/03/27 10:36:32;;;;;;;8.10;2.88;;;8.40;99.90;;;;;;5072857;28;20546;-63
2023/03/27 10:39:10;;;;;;;4.82;2.40;;;8.60;99.90;;;;;;5057085;28;20048;-60
2023/03/27 10:42:00;;;;;;;6.32;2.72;;;8.90;99.90;;;;;;5110512;28;20039;-62
2023/03/27 10:44:28;;;;;;;13.40;2.65;;;9.00;99.90;;;;;;5091201;28;20043;-59
2023/03/27 10:46:57;;;;;;;14.80;2.80;;;9.20;99.90;;;;;;5106910;28;20044;-60
2023/03/27 10:49:39;;;;;;;7.22;2.88;;;9.10;99.90;;;;;;5104367;28;20040;-61
2023/03/27 10:52:24;;;;;;;7.07;2.25;;;9.30;99.90;;;;;;5097154;28;20059;-63
2023/03/27 10:55:36;;;;;;;4.55;1.98;;;9.40;99.90;;;;;;5070989;28;20036;-62
2023/03/27 10:58:19;;;;;;;5.60;2.13;;;9.40;99.90;;;;;;5091640;28;20055;-61
2023/03/27 11:01:30;;;;;;;8.10;2.53;;;9.40;99.90;;;;;;5073552;28;20047;-58
2023/03/27 11:04:05;;;;;;;5.28;1.77;;;9.40;99.90;;;;;;5106207;28;20046;-59
2023/03/27 11:06:45;;;;;;;10.60;2.25;;;9.30;99.90;;;;;;5106094;28;20059;-60
2023/03/27 11:09:25;;;;;;;5.82;2.20;;;9.30;99.90;;;;;;5105130;28;20494;-58
2023/03/27 11:12:12;;;;;;;6.57;2.78;;;9.20;99.90;;;;;;5105945;28;20048;-61
2023/03/27 11:15:06;;;;;;;9.20;2.55;;;9.00;99.90;;;;;;5087379;28;20058;-59
2023/03/27 11:18:13;;;;;;;9.77;3.35;;;9.00;99.90;;;;;;5077167;28;20044;-60
2023/03/27 11:20:56;;;;;;;6.78;2.78;;;8.80;99.90;;;;;;5084348;28;20055;-58
2023/03/27 11:23:38;;;;;;;7.25;3.40;;;8.70;99.90;;;;;;5102305;28;20036;-60
2023/03/27 11:26:59;;;;;;;7.75;3.42;;;8.60;99.90;;;;;;5092338;28;20043;-58
2023/03/27 11:29:34;;;;;;;11.07;4.00;;;8.60;99.90;;;;;;5105599;28;20058;-57
2023/03/27 11:32:11;;;;;;;11.27;3.70;;;8.60;99.90;;;;;;5090323;28;20059;-59
2023/03/27 11:35:01;;;;;;;7.15;2.35;;;8.60;99.90;;;;;;5090622;28;20062;-60
2023/03/27 11:38:02;;;;;;;11.52;2.53;;;8.50;99.90;;;;;;5089139;28;20043;-57
2023/03/27 11:40:42;;;;;;;9.27;2.72;;;8.50;99.90;;;;;;5093661;28;20043;-59
2023/03/27 11:43:12;;;;;;;6.22;2.78;;;8.50;99.90;;;;;;5103318;28;20035;-59
2023/03/27 11:46:02;;;;;;;7.30;2.85;;;8.80;99.90;;;;;;5090909;28;20069;-58
2023/03/27 11:48:58;;;;;;;8.90;2.50;;;9.10;99.90;;;;;;5075292;28;20040;-60
2023/03/27 11:51:52;;;;;;;4.55;2.28;;;9.20;99.90;;;;;;5093905;28;20047;-58
2023/03/27 11:54:46;;;;;;;7.32;2.40;;;9.20;99.90;;;;;;5106494;28;20048;-60
2023/03/27 11:57:21;;;;;;;;;;;9.10;99.90;;;;;;5084345;28;20039;-59
2023/03/27 12:00:27;;;;;;;8.32;2.30;;;9.20;99.90;;;;;;5087949;28;19919;-59
2023/03/27 12:03:17;;;;;;;6.70;1.90;;;9.40;99.90;;;;;;5057107;28;20048;-60
2023/03/27 12:06:19;;;;;;;5.07;2.05;;;9.90;99.90;;;;;;5061460;28;20048;-59
2023/03/27 12:09:06;;;;;;;7.57;1.90;;;10.80;99.90;;;;;;5094844;28;20047;-59
2023/03/27 12:12:37;;;;;;;3.55;1.67;;;11.50;99.90;;;;;;5084106;28;20051;-59
2023/03/27 12:15:35;;;;;;;2.45;1.40;;;12.10;99.90;;;;;;5050015;28;20404;-60
2023/03/27 12:18:37;;;;;;;5.65;2.08;;;12.10;99.90;;;;;;5077629;28;20486;-59
2023/03/27 12:21:22;;;;;;;3.78;2.10;;;11.90;99.90;;;;;;5087200;28;20051;-60
2023/03/27 12:24:18;;;;;;;7.68;1.88;;;11.60;99.90;;;;;;5078681;28;20502;-62
2023/03/27 12:27:46;;;;;;;6.95;2.38;;;10.90;99.90;;;;;;5101555;28;20048;-62
2023/03/27 12:30:44;;;;;;;5.43;2.17;;;10.80;99.90;;;;;;5094889;28;20055;-61
2023/03/27 12:33:44;;;;;;;8.50;1.88;;;10.50;99.90;;;;;;5101851;28;20390;-59
2023/03/27 12:36:14;;;;;;;;;;;10.50;99.90;;;;;;5087470;28;20040;-58
2023/03/27 12:38:44;;;;;;;5.25;2.03;;;10.40;99.90;;;;;;5066530;28;19928;-59
2023/03/27 12:41:18;;;;;;;5.80;2.45;;;10.20;99.90;;;;;;5090672;28;20047;-58
2023/03/27 12:44:24;;;;;;;8.10;2.50;;;10.20;99.90;;;;;;5081457;28;20054;-58
2023/03/27 12:47:22;;;;;;;6.53;2.65;;;10.10;99.90;;;;;;5107861;28;20047;-59
2023/03/27 12:50:19;;;;;;;5.22;2.08;;;10.10;99.90;;;;;;5074659;28;20052;-59
2023/03/27 12:52:52;;;;;;;7.20;2.45;;;10.20;99.90;;;;;;5082677;28;20035;-59
2023/03/27 12:55:31;;;;;;;5.13;2.47;;;10.20;99.90;;;;;;5084923;28;20063;-59
2023/03/27 12:58:02;;;;;;;6.47;2.22;;;10.40;99.90;;;;;;5100610;28;20043;-60
2023/03/27 13:01:11;;;;;;;4.28;2.08;;;10.40;99.90;;;;;;5025290;28;20046;-58
2023/03/27 13:04:01;;;;;;;3.30;1.90;;;10.60;99.90;;;;;;5029709;28;20052;-59
2023/03/27 13:06:39;;;;;;;6.15;2.30;;;10.90;99.90;;;;;;5059040;28;20040;-59
2023/03/27 13:09:24;;;;;;;5.38;1.77;;;11.00;99.90;;;;;;5070972;28;20386;-59
2023/03/27 13:12:13;;;;;;;3.97;1.88;;;11.00;99.90;;;;;;5091056;28;20047;-59
2023/03/27 13:14:54;;;;;;;3.00;1.92;;;10.90;99.90;;;;;;5091783;28;20391;-59
2023/03/27 13:17:56;;;;;;;9.32;2.60;;;10.80;99.90;;;;;;5098613;28;20044;-60
2023/03/27 13:20:59;;;;;;;10.18;2.05;;;10.60;99.90;;;;;;5092300;28;20036;-61
2023/03/27 13:23:42;;;;;;;8.23;1.77;;;10.40;99.90;;;;;;5076067;28;20062;-60
2023/03/27 13:26:26;;;;;;;4.10;1.63;;;10.30;99.90;;;;;;5074154;28;20047;-61
2023/03/27 13:28:56;;;;;;;6.43;1.70;;;10.20;99.90;;;;;;5087737;28;20413;-61
2023/03/27 13:31:44;;;;;;;4.40;1.52;;;10.00;99.90;;;;;;5092352;28;20055;-58
2023/03/27 13:34:40;;;;;;;8.13;1.95;;;10.00;99.90;;;;;;5098992;28;20062;-58
2023/03/27 13:37:13;;;;;;;3.60;1.30;;;9.90;99.90;;;;;;5076763;28;20040;-59
2023/03/27 13:39:55;;;;;;;6.35;1.67;;;9.90;99.90;;;;;;5089303;28;20482;-59
2023/03/27 13:42:44;;;;;;;36.28;5.60;;;10.00;99.90;;;;;;5079231;28;20051;-58
2023/03/27 13:45:25;;;;;;;;;;;10.20;99.90;;;;;;5102691;28;20044;-58
2023/03/27 13:48:37;;;;;;;4.88;1.88;;;10.20;99.90;;;;;;5097001;28;19927;-59
2023/03/27 13:51:08;;;;;;;5.78;2.40;;;10.40;99.90;;;;;;5102148;28;20051;-59
2023/03/27 13:53:49;;;;;;;2.15;1.45;;;10.50;99.90;;;;;;5077370;28;20399;-58
2023/03/27 13:57:22;;;;;;;2.97;1.58;;;10.50;99.90;;;;;;5104184;28;20044;-58
2023/03/27 14:00:23;;;;;;;4.03;0.93;;;10.60;99.90;;;;;;5108715;28;20510;-59
2023/03/27 14:03:26;;;;;;;3.80;1.52;;;10.50;99.90;;;;;;5104401;28;20051;-58
2023/03/27 14:06:23;;;;;;;2.67;1.10;;;10.50;99.90;;;;;;5088575;28;20055;-59
2023/03/27 14:09:00;;;;;;;3.35;1.10;;;10.50;99.90;;;;;;5092839;28;20058;-59